Time;durP1;ratioP1;P1;durP2;ratioP2;P2;SDS_P1;SDS_P2;PMS_P1;PMS_P2;Temp;Humidity;BMP_temperature;BMP_pressure;BME280_temperature;BME280_humidity;BME280_pressure;Samples;Min_cycle;Max_cycle;Signal;HPM_P1;HPM_P2
2022/10/02 00:00:38;;;;;;;14.95;8.43;;;17.70;85.00;;;;;;1924595;74;21131;-56
2022/10/02 00:03:16;;;;;;;10.25;7.37;;;17.70;85.20;;;;;;1924695;74;21108;-56
2022/10/02 00:05:54;;;;;;;12.53;8.00;;;17.70;85.20;;;;;;1924625;74;21042;-56
2022/10/02 00:08:26;;;;;;;19.65;9.20;;;17.50;85.20;;;;;;1924428;74;21030;-57
2022/10/02 00:11:01;;;;;;;16.60;7.15;;;17.50;85.10;;;;;;1924418;74;21577;-56
2022/10/02 00:13:31;;;;;;;;;;;17.50;84.50;;;;;;1926216;74;21054;-56
2022/10/02 00:16:02;;;;;;;8.85;6.58;;;17.40;85.10;;;;;;1924585;74;20101;-56
2022/10/02 00:18:33;;;;;;;7.03;5.97;;;17.40;85.00;;;;;;1924590;74;21127;-56
2022/10/02 00:21:14;;;;;;;8.45;6.10;;;17.40;85.20;;;;;;1924724;74;21011;-56
2022/10/02 00:23:55;;;;;;;9.55;6.30;;;17.40;85.40;;;;;;1924540;74;21183;-56
2022/10/02 00:26:30;;;;;;;9.83;7.08;;;17.40;85.50;;;;;;1924690;74;21035;-56
2022/10/02 00:29:14;;;;;;;6.85;5.50;;;17.30;85.70;;;;;;1924749;74;21784;-56
2022/10/02 00:31:55;;;;;;;10.93;6.15;;;17.40;85.60;;;;;;1923593;74;21465;-55
2022/10/02 00:34:35;;;;;;;9.50;6.05;;;17.30;85.50;;;;;;1894409;74;21133;-55
2022/10/02 00:37:34;;;;;;;8.33;6.00;;;17.30;85.50;;;;;;1924660;74;21471;-56
2022/10/02 00:40:25;;;;;;;9.93;6.42;;;17.30;85.90;;;;;;1924582;74;21068;-55
2022/10/02 00:43:00;;;;;;;9.60;6.17;;;17.30;86.50;;;;;;1923223;74;21058;-55
2022/10/02 00:45:41;;;;;;;8.80;6.05;;;17.30;86.70;;;;;;1924197;74;21043;-56
2022/10/02 00:48:37;;;;;;;8.03;5.95;;;17.40;86.40;;;;;;1924433;74;21144;-56
2022/10/02 00:51:14;;;;;;;7.28;6.25;;;17.40;86.30;;;;;;1924810;74;20995;-56
2022/10/02 00:53:58;;;;;;;9.55;6.40;;;17.30;86.70;;;;;;1895926;74;21109;-56
2022/10/02 00:56:36;;;;;;;7.92;6.17;;;17.40;87.20;;;;;;1924769;74;21035;-56
2022/10/02 00:59:31;;;;;;;8.18;6.05;;;17.40;87.20;;;;;;1924126;74;21022;-56
2022/10/02 01:02:19;;;;;;;10.53;6.07;;;17.50;87.20;;;;;;1924660;74;21104;-56
2022/10/02 01:04:48;;;;;;;8.35;6.42;;;17.50;86.80;;;;;;1924774;74;21160;-56
2022/10/02 01:07:18;;;;;;;7.60;6.58;;;17.50;87.10;;;;;;1924632;74;21015;-56
2022/10/02 01:09:47;;;;;;;9.10;5.75;;;17.50;87.50;;;;;;1924519;74;21050;-57
2022/10/02 01:12:17;;;;;;;11.25;8.30;;;17.60;87.60;;;;;;1924763;74;21014;-56
2022/10/02 01:14:46;;;;;;;12.68;6.95;;;17.50;87.20;;;;;;1924604;74;21014;-56
2022/10/02 01:17:33;;;;;;;12.93;6.40;;;17.50;87.30;;;;;;1924846;74;21080;-56
2022/10/02 01:20:04;;;;;;;8.15;6.67;;;17.40;87.00;;;;;;1924761;74;21515;-56
2022/10/02 01:22:48;;;;;;;8.55;5.65;;;17.30;86.90;;;;;;1924768;74;21018;-57
2022/10/02 01:25:18;;;;;;;6.55;5.95;;;17.30;87.10;;;;;;1924485;74;21110;-56
2022/10/02 01:27:47;;;;;;;7.37;5.78;;;17.30;87.10;;;;;;1924725;74;21031;-56
2022/10/02 01:30:19;;;;;;;10.45;5.37;;;17.30;87.00;;;;;;1924680;74;21072;-56
2022/10/02 01:32:53;;;;;;;6.83;5.92;;;17.30;87.00;;;;;;1924670;74;21551;-56
2022/10/02 01:35:25;;;;;;;7.17;5.40;;;17.30;86.90;;;;;;1924970;74;21469;-55
2022/10/02 01:37:55;;;;;;;6.33;5.30;;;17.40;86.60;;;;;;1924931;74;21038;-56
2022/10/02 01:40:33;;;;;;;8.25;5.65;;;17.30;86.40;;;;;;1924788;74;20998;-55
2022/10/02 01:43:08;;;;;;;8.05;4.85;;;17.30;86.20;;;;;;1924844;74;21030;-55
2022/10/02 01:45:55;;;;;;;10.10;5.80;;;17.20;86.20;;;;;;1924918;74;20987;-56
2022/10/02 01:48:32;;;;;;;7.47;5.58;;;17.20;86.20;;;;;;1924622;74;20999;-56
2022/10/02 01:51:24;;;;;;;9.68;6.03;;;17.30;86.40;;;;;;1896337;74;21101;-56
2022/10/02 01:54:23;;;;;;;8.13;4.97;;;17.20;86.60;;;;;;1924685;74;21101;-56
2022/10/02 01:57:01;;;;;;;7.17;5.10;;;17.30;86.30;;;;;;1924850;74;21096;-56
2022/10/02 01:59:41;;;;;;;6.75;5.60;;;17.30;86.40;;;;;;1923922;74;21076;-56
2022/10/02 02:02:37;;;;;;;8.00;5.45;;;17.20;86.30;;;;;;1924483;74;21533;-56
2022/10/02 02:05:32;;;;;;;8.08;5.50;;;17.20;86.40;;;;;;1924824;74;21050;-56
2022/10/02 02:08:07;;;;;;;8.13;6.05;;;17.20;87.00;;;;;;1924814;74;21072;-56
2022/10/02 02:10:53;;;;;;;7.75;5.78;;;17.20;87.40;;;;;;1917874;74;21043;-56
2022/10/02 02:13:34;;;;;;;7.37;6.03;;;17.20;87.50;;;;;;1905034;74;21501;-56
2022/10/02 02:16:25;;;;;;;7.25;5.78;;;17.20;87.50;;;;;;1903166;74;21077;-56
2022/10/02 02:18:59;;;;;;;7.30;5.80;;;17.20;87.70;;;;;;1904927;74;21075;-56
2022/10/02 02:21:31;;;;;;;9.90;5.50;;;17.20;87.80;;;;;;1905570;75;21061;-56
2022/10/02 02:24:03;;;;;;;10.78;6.65;;;17.20;87.80;;;;;;1904947;74;21117;-56
2022/10/02 02:26:34;;;;;;;6.62;5.95;;;17.20;87.80;;;;;;1905227;75;21047;-56
2022/10/02 02:29:05;;;;;;;9.60;5.65;;;17.20;88.00;;;;;;1905278;75;21073;-56
2022/10/02 02:31:40;;;;;;;7.95;5.85;;;17.20;88.20;;;;;;1905234;75;21011;-56
2022/10/02 02:34:12;;;;;;;8.43;6.80;;;17.30;88.20;;;;;;1905415;75;21289;-56
2022/10/02 02:36:44;;;;;;;8.73;6.22;;;17.30;88.40;;;;;;1905283;75;21136;-57
2022/10/02 02:39:18;;;;;;;8.45;5.67;;;17.30;88.60;;;;;;1905283;75;20996;-56
2022/10/02 02:41:50;;;;;;;8.63;6.33;;;17.30;88.80;;;;;;1905378;75;21104;-56
2022/10/02 02:44:23;;;;;;;10.18;6.75;;;17.30;89.20;;;;;;1904621;74;21039;-56
2022/10/02 02:47:03;;;;;;;8.58;5.65;;;17.40;88.80;;;;;;1901834;74;21521;-56
2022/10/02 02:49:37;;;;;;;10.35;6.17;;;17.30;88.40;;;;;;1905118;74;21196;-56
2022/10/02 02:52:09;;;;;;;8.58;6.58;;;17.20;88.50;;;;;;1905543;75;21101;-56
2022/10/02 02:54:41;;;;;;;8.60;6.90;;;17.10;88.60;;;;;;1905260;75;21479;-56
2022/10/02 02:57:12;;;;;;;12.15;7.17;;;17.10;88.90;;;;;;1905179;74;21536;-57
2022/10/02 02:59:44;;;;;;;8.23;7.30;;;17.10;89.30;;;;;;1905127;75;21067;-56
2022/10/02 03:02:14;;;;;;;10.55;7.17;;;17.10;89.40;;;;;;1905302;75;21039;-56
2022/10/02 03:04:43;;;;;;;8.20;7.30;;;17.10;89.40;;;;;;1905256;75;21085;-56
2022/10/02 03:07:16;;;;;;;9.35;7.90;;;17.10;89.60;;;;;;1905181;75;21039;-56
2022/10/02 03:10:00;;;;;;;8.90;7.55;;;17.10;89.90;;;;;;1905126;75;21113;-57
2022/10/02 03:12:44;;;;;;;9.90;7.80;;;17.10;90.10;;;;;;1877498;76;21148;-56
2022/10/02 03:15:48;;;;;;;9.10;7.05;;;17.10;90.10;;;;;;1882266;76;21437;-56
2022/10/02 03:18:29;;;;;;;8.60;7.50;;;17.10;90.20;;;;;;1893216;75;21067;-56
2022/10/02 03:21:13;;;;;;;9.23;7.47;;;17.20;90.20;;;;;;1871899;76;21601;-56
2022/10/02 03:23:45;;;;;;;11.15;7.55;;;17.20;90.30;;;;;;1882349;76;20994;-56
2022/10/02 03:26:33;;;;;;;9.15;7.53;;;17.30;90.40;;;;;;1881307;76;21017;-56
2022/10/02 03:29:05;;;;;;;11.00;7.85;;;17.30;90.40;;;;;;1882066;75;21083;-56
2022/10/02 03:31:36;;;;;;;11.33;8.23;;;17.30;90.40;;;;;;1882236;76;21075;-56
2022/10/02 03:34:05;;;;;;;12.35;7.72;;;17.30;90.30;;;;;;1882143;76;21037;-57
2022/10/02 03:36:35;;;;;;;12.45;8.88;;;17.30;90.40;;;;;;1882196;76;21022;-56
2022/10/02 03:39:06;;;;;;;10.95;7.90;;;17.30;90.50;;;;;;1882052;76;21143;-56
2022/10/02 03:41:35;;;;;;;12.37;7.30;;;17.20;90.40;;;;;;1882296;76;21021;-56
2022/10/02 03:44:04;;;;;;;11.85;8.58;;;17.20;90.40;;;;;;1882313;76;21065;-56
2022/10/02 03:46:33;;;;;;;13.32;8.45;;;17.20;90.50;;;;;;1882207;76;21409;-56
2022/10/02 03:49:03;;;;;;;11.38;8.35;;;17.20;90.70;;;;;;1882192;76;21025;-56
2022/10/02 03:51:32;;;;;;;16.48;8.60;;;17.20;90.80;;;;;;1882340;76;21069;-56
2022/10/02 03:54:01;;;;;;;13.28;8.93;;;17.20;90.90;;;;;;1882308;76;21065;-56
2022/10/02 03:56:42;;;;;;;12.45;9.08;;;17.30;90.90;;;;;;1882358;76;21515;-56
2022/10/02 03:59:14;;;;;;;16.37;9.58;;;17.30;91.00;;;;;;1881938;76;21109;-56
2022/10/02 04:01:49;;;;;;;15.15;9.35;;;17.40;91.00;;;;;;1880669;76;21024;-56
2022/10/02 04:04:27;;;;;;;10.25;9.15;;;17.50;91.00;;;;;;1882484;76;21087;-56
2022/10/02 04:07:05;;;;;;;11.20;8.65;;;17.50;91.00;;;;;;1882282;76;20986;-56
2022/10/02 04:09:40;;;;;;;13.25;8.70;;;17.60;91.00;;;;;;1882283;76;21050;-56
2022/10/02 04:12:20;;;;;;;18.23;10.58;;;17.70;91.00;;;;;;1895304;74;21036;-56
2022/10/02 04:15:10;;;;;;;12.65;9.05;;;17.70;90.90;;;;;;1904248;74;21063;-56
2022/10/02 04:17:44;;;;;;;13.62;9.78;;;17.70;90.80;;;;;;1904953;74;21466;-56
2022/10/02 04:20:20;;;;;;;15.18;10.00;;;17.70;90.80;;;;;;1902474;74;21039;-56
2022/10/02 04:23:10;;;;;;;25.23;15.83;;;17.70;91.00;;;;;;1905067;74;21051;-56
2022/10/02 04:25:42;;;;;;;19.23;14.55;;;17.80;90.80;;;;;;1904967;74;21027;-56
2022/10/02 04:28:14;;;;;;;22.95;14.38;;;17.80;90.80;;;;;;1905222;75;21515;-56
2022/10/02 04:30:43;;;;;;;21.02;13.85;;;17.80;90.80;;;;;;1905302;75;21430;-56
2022/10/02 04:33:15;;;;;;;13.18;10.53;;;17.90;90.90;;;;;;1905142;75;21105;-56
2022/10/02 04:36:01;;;;;;;13.00;11.03;;;17.90;90.90;;;;;;1905270;75;20995;-56
2022/10/02 04:38:51;;;;;;;20.12;11.53;;;18.00;90.90;;;;;;1905135;74;21020;-56
2022/10/02 04:41:23;;;;;;;9.83;8.83;;;18.00;90.90;;;;;;1878783;75;21081;-56
2022/10/02 04:44:07;;;;;;;13.03;9.20;;;18.00;90.80;;;;;;1904769;74;21023;-56
2022/10/02 04:46:42;;;;;;;12.78;9.25;;;18.10;90.80;;;;;;1905158;74;21039;-56
2022/10/02 04:49:23;;;;;;;14.25;9.70;;;18.20;90.90;;;;;;1904809;74;21559;-56
2022/10/02 04:52:11;;;;;;;10.38;8.08;;;18.20;90.90;;;;;;1905239;74;21106;-56
2022/10/02 04:54:52;;;;;;;13.15;8.38;;;18.30;90.80;;;;;;1905087;75;21101;-56
2022/10/02 04:57:41;;;;;;;7.83;7.00;;;18.40;90.80;;;;;;1905057;74;21090;-56
2022/10/02 05:00:13;;;;;;;10.85;7.60;;;18.50;90.80;;;;;;1904181;74;21023;-56
2022/10/02 05:02:57;;;;;;;14.50;8.83;;;18.60;90.80;;;;;;1905090;74;21054;-56
2022/10/02 05:05:38;;;;;;;12.37;10.55;;;18.60;90.70;;;;;;1900580;74;20995;-56
2022/10/02 05:08:27;;;;;;;11.35;8.95;;;18.60;90.70;;;;;;1904806;74;21019;-56
2022/10/02 05:11:29;;;;;;;26.93;12.13;;;18.70;90.70;;;;;;1905040;75;21073;-56
2022/10/02 05:14:01;;;;;;;11.90;8.38;;;18.70;90.70;;;;;;1905063;75;21106;-56
2022/10/02 05:16:45;;;;;;;8.55;7.40;;;18.80;90.80;;;;;;1905104;74;21077;-56
2022/10/02 05:19:20;;;;;;;10.40;7.80;;;18.80;90.70;;;;;;1897596;74;21015;-55
2022/10/02 05:21:53;;;;;;;;;;;18.90;90.70;;;;;;1907591;74;21085;-56
2022/10/02 05:24:37;;;;;;;14.85;8.00;;;18.90;90.70;;;;;;1904838;74;20136;-56
2022/10/02 05:27:15;;;;;;;12.30;8.20;;;19.00;90.60;;;;;;1904779;74;21023;-56
2022/10/02 05:30:05;;;;;;;17.10;10.53;;;19.00;90.50;;;;;;1895449;75;21560;-56
2022/10/02 05:32:40;;;;;;;13.43;8.98;;;19.10;90.50;;;;;;1905100;75;21083;-56
2022/10/02 05:35:47;;;;;;;8.90;7.87;;;19.20;90.50;;;;;;1904264;74;21105;-56
2022/10/02 05:38:35;;;;;;;11.55;6.87;;;19.30;90.50;;;;;;1905016;75;21069;-56
2022/10/02 05:41:07;;;;;;;9.23;7.37;;;19.40;90.40;;;;;;1905188;74;21035;-55
2022/10/02 05:43:56;;;;;;;13.45;6.83;;;19.50;90.30;;;;;;1903268;74;21094;-56
2022/10/02 05:46:28;;;;;;;12.33;7.62;;;19.60;90.30;;;;;;1905116;75;21101;-55
2022/10/02 05:49:09;;;;;;;9.55;7.58;;;19.70;90.20;;;;;;1905085;75;21081;-55
2022/10/02 05:52:02;;;;;;;8.50;7.20;;;19.90;90.10;;;;;;1905213;75;21101;-55
2022/10/02 05:54:56;;;;;;;10.40;8.45;;;20.00;89.90;;;;;;1900971;74;21100;-55
2022/10/02 05:57:34;;;;;;;11.50;7.28;;;20.10;89.70;;;;;;1904599;74;21081;-55
2022/10/02 06:00:14;;;;;;;10.20;7.17;;;20.20;89.50;;;;;;1905175;74;21106;-56
2022/10/02 06:03:03;;;;;;;9.70;6.60;;;20.30;89.30;;;;;;1905244;74;21007;-55
2022/10/02 06:05:47;;;;;;;11.03;7.05;;;20.30;89.10;;;;;;1904722;74;21044;-57
2022/10/02 06:08:19;;;;;;;9.85;6.50;;;20.50;88.90;;;;;;1905196;75;21012;-56
2022/10/02 06:10:55;;;;;;;10.13;6.10;;;20.60;88.70;;;;;;1905319;75;21036;-56
2022/10/02 06:13:27;;;;;;;11.33;6.10;;;20.70;88.50;;;;;;1905305;74;21474;-56
2022/10/02 06:16:01;;;;;;;10.03;6.62;;;20.80;88.30;;;;;;1903649;74;21031;-56
2022/10/02 06:18:32;;;;;;;;;;;20.90;87.80;;;;;;1907645;74;21043;-56
2022/10/02 06:21:06;;;;;;;7.67;5.80;;;21.00;86.90;;;;;;1905323;75;20093;-56
2022/10/02 06:23:48;;;;;;;6.47;5.75;;;21.10;87.10;;;;;;1905102;74;21043;-56
2022/10/02 06:26:28;;;;;;;6.65;5.90;;;21.20;86.90;;;;;;1905421;75;21097;-56
2022/10/02 06:29:01;;;;;;;7.37;4.85;;;21.30;86.70;;;;;;1904662;74;21035;-56
2022/10/02 06:31:42;;;;;;;5.65;4.50;;;21.30;86.20;;;;;;1905164;75;21089;-56
2022/10/02 06:34:15;;;;;;;7.12;5.22;;;21.50;85.90;;;;;;1905277;75;21015;-56
2022/10/02 06:37:04;;;;;;;4.80;4.40;;;21.60;85.00;;;;;;1905310;74;20995;-56
2022/10/02 06:39:39;;;;;;;12.47;4.17;;;21.70;84.50;;;;;;1897250;74;21072;-57
2022/10/02 06:42:22;;;;;;;9.13;4.12;;;21.80;83.70;;;;;;1905218;75;21007;-56
2022/10/02 06:45:03;;;;;;;7.65;4.15;;;21.90;83.30;;;;;;1904761;74;21561;-56
2022/10/02 06:47:52;;;;;;;6.12;3.83;;;22.10;82.20;;;;;;1904917;74;21075;-57
2022/10/02 06:50:31;;;;;;;4.05;3.50;;;22.20;81.20;;;;;;1905056;75;21086;-56
2022/10/02 06:53:17;;;;;;;5.12;4.30;;;22.40;80.60;;;;;;1905052;74;21454;-56
2022/10/02 06:55:58;;;;;;;5.33;3.27;;;22.50;80.00;;;;;;1904691;74;21019;-56
2022/10/02 06:58:37;;;;;;;5.00;3.90;;;22.60;79.40;;;;;;1904987;74;21047;-56
2022/10/02 07:01:29;;;;;;;6.20;3.92;;;22.60;79.00;;;;;;1905125;74;21039;-57
2022/10/02 07:04:13;;;;;;;5.45;4.05;;;22.70;78.30;;;;;;1904579;74;21081;-56
2022/10/02 07:07:06;;;;;;;5.93;4.10;;;22.80;77.70;;;;;;1845833;74;21081;-56
2022/10/02 07:09:56;;;;;;;8.15;3.70;;;22.90;77.30;;;;;;1904792;74;21015;-57
2022/10/02 07:12:33;;;;;;;5.22;3.60;;;23.00;75.90;;;;;;1906375;74;21047;-56
2022/10/02 07:15:25;;;;;;;4.10;3.60;;;23.10;75.60;;;;;;1923366;74;21039;-55
2022/10/02 07:18:06;;;;;;;5.50;4.03;;;23.20;74.80;;;;;;1923928;74;21080;-56
2022/10/02 07:20:50;;;;;;;3.70;3.27;;;23.20;73.60;;;;;;1899574;74;21058;-56
2022/10/02 07:23:24;;;;;;;3.35;3.05;;;23.30;73.70;;;;;;1924663;74;21105;-56
2022/10/02 07:26:11;;;;;;;4.58;3.50;;;23.30;73.10;;;;;;1924080;74;21118;-56
2022/10/02 07:28:49;;;;;;;4.55;2.95;;;23.40;73.00;;;;;;1924083;74;21022;-56
2022/10/02 07:31:30;;;;;;;3.42;3.02;;;23.40;71.90;;;;;;1915050;74;21023;-56
2022/10/02 07:34:26;;;;;;;10.35;3.55;;;23.50;71.50;;;;;;1924252;74;21461;-56
2022/10/02 07:37:23;;;;;;;8.05;3.95;;;23.60;71.50;;;;;;1924397;74;21011;-55
2022/10/02 07:40:13;;;;;;;8.25;3.90;;;23.60;71.20;;;;;;1924463;74;21104;-57
2022/10/02 07:43:06;;;;;;;3.77;3.20;;;23.60;71.00;;;;;;1924426;74;21516;-57
2022/10/02 07:45:38;;;;;;;5.90;3.27;;;23.60;71.20;;;;;;1923967;74;21014;-57
2022/10/02 07:48:22;;;;;;;6.75;3.37;;;23.60;71.00;;;;;;1924504;74;21119;-57
2022/10/02 07:51:45;;;;;;;10.95;4.92;;;23.70;70.80;;;;;;1923677;74;21023;-57
2022/10/02 07:53:39;;;;;;;4.87;2.92;;;23.80;70.30;;;;;;1914508;74;21096;-57
2022/10/02 07:56:18;;;;;;;3.42;3.12;;;23.80;70.40;;;;;;1924561;74;21505;-56
2022/10/02 07:58:50;;;;;;;4.37;3.42;;;23.80;70.20;;;;;;1923612;74;21101;-57
2022/10/02 08:01:22;;;;;;;6.62;3.17;;;23.90;70.10;;;;;;1924488;74;21080;-56
2022/10/02 08:04:03;;;;;;;5.30;3.33;;;23.90;69.90;;;;;;1924423;74;21540;-57
2022/10/02 08:06:33;;;;;;;6.40;3.27;;;23.90;69.70;;;;;;1924573;74;21086;-57
2022/10/02 08:09:17;;;;;;;9.35;3.50;;;23.90;69.50;;;;;;1924647;74;21066;-57
2022/10/02 08:11:58;;;;;;;7.00;3.70;;;24.00;69.60;;;;;;1918106;74;21476;-56
2022/10/02 08:14:34;;;;;;;5.55;3.95;;;24.00;69.60;;;;;;1914378;74;21121;-57
2022/10/02 08:17:08;;;;;;;6.75;3.52;;;24.00;69.50;;;;;;1905286;75;21086;-57
2022/10/02 08:19:43;;;;;;;9.90;3.45;;;24.10;69.40;;;;;;1901273;75;21016;-57
2022/10/02 08:22:24;;;;;;;6.58;4.20;;;24.20;69.00;;;;;;1905387;75;21112;-57
2022/10/02 08:25:01;;;;;;;7.95;3.33;;;24.20;68.70;;;;;;1904186;74;21498;-56
2022/10/02 08:27:39;;;;;;;6.53;3.80;;;24.30;68.90;;;;;;1905401;75;21035;-56
2022/10/02 08:30:08;;;;;;;5.15;3.12;;;24.40;68.70;;;;;;1902400;74;21039;-56
2022/10/02 08:32:37;;;;;;;7.37;4.37;;;24.40;68.50;;;;;;1905068;74;21478;-55
2022/10/02 08:35:13;;;;;;;3.80;3.35;;;24.50;68.40;;;;;;1905041;74;21019;-56
2022/10/02 08:38:08;;;;;;;9.43;5.28;;;24.50;68.80;;;;;;1904601;74;21023;-56
2022/10/02 08:40:37;;;;;;;4.58;3.40;;;24.50;68.30;;;;;;1904874;74;21039;-56
2022/10/02 08:43:37;;;;;;;6.70;3.75;;;24.60;68.20;;;;;;1904133;74;21040;-56
2022/10/02 08:46:42;;;;;;;21.52;5.22;;;24.60;67.70;;;;;;1905241;74;21031;-56
2022/10/02 08:49:31;;;;;;;8.75;5.05;;;24.60;67.50;;;;;;1905086;75;21414;-56
2022/10/02 08:52:27;;;;;;;5.30;3.22;;;24.70;67.00;;;;;;1904634;74;21091;-56
2022/10/02 08:55:15;;;;;;;5.22;3.40;;;24.80;66.60;;;;;;1905188;75;21090;-56
2022/10/02 08:58:04;;;;;;;4.85;3.50;;;24.80;66.50;;;;;;1905316;75;21043;-56
2022/10/02 09:00:56;;;;;;;3.67;3.20;;;24.90;66.40;;;;;;1904865;74;21089;-56
2022/10/02 09:03:45;;;;;;;4.78;3.60;;;24.90;66.10;;;;;;1905268;75;21040;-56
2022/10/02 09:06:49;;;;;;;5.53;3.27;;;25.00;65.70;;;;;;1905226;75;21039;-57
2022/10/02 09:09:45;;;;;;;4.12;3.22;;;25.00;64.50;;;;;;1905159;75;21149;-57
2022/10/02 09:12:52;;;;;;;5.20;3.90;;;25.00;64.90;;;;;;1905161;75;21019;-57
2022/10/02 09:15:45;;;;;;;6.10;3.33;;;25.10;64.60;;;;;;1905130;74;21129;-56
2022/10/02 09:18:31;;;;;;;6.97;3.22;;;25.10;64.50;;;;;;1905146;75;21473;-56
2022/10/02 09:21:09;;;;;;;3.42;3.12;;;25.10;64.00;;;;;;1904334;74;20995;-57
2022/10/02 09:23:51;;;;;;;5.20;3.35;;;25.10;63.70;;;;;;1889967;75;21019;-57
2022/10/02 09:26:38;;;;;;;3.45;3.10;;;25.20;63.50;;;;;;1905238;75;21015;-57
2022/10/02 09:29:36;;;;;;;3.65;2.90;;;25.20;63.30;;;;;;1905140;75;21036;-57
2022/10/02 09:32:17;;;;;;;4.65;3.62;;;25.20;62.90;;;;;;1905066;75;21160;-57
2022/10/02 09:34:52;;;;;;;5.10;2.83;;;25.20;63.00;;;;;;1905157;75;21097;-57
2022/10/02 09:37:37;;;;;;;4.45;2.85;;;25.30;62.70;;;;;;1903003;74;21124;-57
2022/10/02 09:40:15;;;;;;;3.23;2.57;;;25.30;63.00;;;;;;1905486;75;21043;-57
2022/10/02 09:43:08;;;;;;;4.28;2.75;;;25.40;62.80;;;;;;1905179;75;21023;-57
2022/10/02 09:46:06;;;;;;;3.92;2.67;;;25.40;62.70;;;;;;1903483;74;21063;-57
2022/10/02 09:48:41;;;;;;;5.65;3.27;;;25.40;62.50;;;;;;1905218;75;21093;-57
2022/10/02 09:51:18;;;;;;;8.40;3.87;;;25.40;62.20;;;;;;1904809;74;21073;-57
2022/10/02 09:54:02;;;;;;;9.65;3.15;;;25.50;61.90;;;;;;1905110;74;21039;-57
2022/10/02 09:56:36;;;;;;;6.97;3.67;;;25.50;61.50;;;;;;1873490;74;21019;-57
2022/10/02 09:59:09;;;;;;;;;;;25.50;61.90;;;;;;1907880;74;21016;-57
2022/10/02 10:01:44;;;;;;;8.05;3.85;;;25.50;61.20;;;;;;1904208;74;20364;-57
2022/10/02 10:04:45;;;;;;;8.75;3.27;;;25.50;61.70;;;;;;1904606;74;21079;-57
2022/10/02 10:07:22;;;;;;;4.53;3.05;;;25.50;60.70;;;;;;1904900;74;21462;-57
2022/10/02 10:10:13;;;;;;;5.87;3.20;;;25.60;60.60;;;;;;1904353;74;21047;-57
2022/10/02 10:13:06;;;;;;;11.00;3.00;;;25.60;60.40;;;;;;1905132;75;21094;-57
2022/10/02 10:16:00;;;;;;;7.03;3.02;;;25.50;59.80;;;;;;1905065;74;21063;-57
2022/10/02 10:18:46;;;;;;;7.22;3.20;;;25.50;60.10;;;;;;1905325;75;21097;-57
2022/10/02 10:21:51;;;;;;;5.03;2.98;;;25.50;60.70;;;;;;1904256;74;21019;-57
2022/10/02 10:24:38;;;;;;;3.67;2.67;;;25.50;60.60;;;;;;1905361;75;21032;-56
2022/10/02 10:27:33;;;;;;;3.60;3.10;;;25.50;60.20;;;;;;1887690;74;21010;-56
2022/10/02 10:30:12;;;;;;;3.37;2.90;;;25.50;60.50;;;;;;1904696;74;21087;-56
2022/10/02 10:33:12;;;;;;;4.28;2.60;;;25.60;60.80;;;;;;1905178;75;21008;-57
2022/10/02 10:36:02;;;;;;;3.30;2.55;;;25.60;61.00;;;;;;1905039;75;21494;-56
2022/10/02 10:38:51;;;;;;;5.20;2.80;;;25.70;61.20;;;;;;1905199;75;21015;-56
2022/10/02 10:41:41;;;;;;;4.58;3.15;;;25.80;60.50;;;;;;1905150;75;21039;-56
2022/10/02 10:44:21;;;;;;;3.30;3.00;;;25.80;60.50;;;;;;1905147;75;21507;-56
2022/10/02 10:47:20;;;;;;;6.90;3.02;;;25.90;60.60;;;;;;1905110;75;21078;-56
2022/10/02 10:50:13;;;;;;;5.45;3.27;;;25.90;60.10;;;;;;1904904;74;21473;-57
2022/10/02 10:53:13;;;;;;;7.15;3.02;;;25.80;59.70;;;;;;1905011;75;21007;-56
2022/10/02 10:55:48;;;;;;;6.12;2.85;;;25.80;60.00;;;;;;1904748;74;21082;-56
2022/10/02 10:58:26;;;;;;;4.62;2.87;;;25.80;59.60;;;;;;1904898;74;21044;-57
2022/10/02 11:01:07;;;;;;;6.53;3.72;;;25.70;59.30;;;;;;1905246;75;21081;-57
2022/10/02 11:03:45;;;;;;;4.10;2.70;;;25.70;59.40;;;;;;1902322;75;21081;-56
2022/10/02 11:06:29;;;;;;;14.58;4.80;;;25.60;59.40;;;;;;1904771;74;21016;-57
2022/10/02 11:09:34;;;;;;;5.95;3.98;;;25.60;59.60;;;;;;1904932;74;21019;-57
2022/10/02 11:12:25;;;;;;;3.10;2.62;;;25.50;59.60;;;;;;1905348;75;21114;-56
2022/10/02 11:15:13;;;;;;;4.28;2.65;;;25.50;59.90;;;;;;1905128;75;21003;-56
2022/10/02 11:17:47;;;;;;;6.47;3.52;;;25.40;59.90;;;;;;1905069;75;21046;-57
2022/10/02 11:20:23;;;;;;;;;;;25.40;60.00;;;;;;1907507;74;21113;-56
2022/10/02 11:23:01;;;;;;;4.22;2.90;;;25.40;59.50;;;;;;1897100;74;20153;-56
2022/10/02 11:25:53;;;;;;;3.72;2.85;;;25.40;60.30;;;;;;1904799;74;21506;-56
2022/10/02 11:28:59;;;;;;;6.35;2.72;;;25.50;60.20;;;;;;1904897;74;21220;-56
2022/10/02 11:31:42;;;;;;;2.92;2.70;;;25.50;60.00;;;;;;1905284;74;20996;-56
2022/10/02 11:34:41;;;;;;;4.45;2.45;;;25.50;59.60;;;;;;1904042;74;21563;-56
2022/10/02 11:37:23;;;;;;;3.60;2.40;;;25.50;59.40;;;;;;1904925;74;21056;-56
2022/10/02 11:39:54;;;;;;;11.70;2.92;;;25.50;59.40;;;;;;1905071;74;21051;-56
2022/10/02 11:42:29;;;;;;;4.45;2.75;;;25.50;59.40;;;;;;1905089;75;21128;-56
2022/10/02 11:45:01;;;;;;;8.83;3.80;;;25.50;59.10;;;;;;1905226;75;21066;-56
2022/10/02 11:47:33;;;;;;;4.90;4.42;;;25.50;58.70;;;;;;1904641;74;21047;-56
2022/10/02 11:50:37;;;;;;;3.17;2.62;;;25.50;57.80;;;;;;1905011;74;21197;-56
2022/10/02 11:53:33;;;;;;;7.15;2.87;;;25.50;57.50;;;;;;1904848;74;21144;-57
2022/10/02 11:56:25;;;;;;;4.83;2.92;;;25.50;57.70;;;;;;1904886;74;21012;-57
2022/10/02 11:59:06;;;;;;;7.15;3.05;;;25.50;57.60;;;;;;1904911;74;21023;-56
2022/10/02 12:01:53;;;;;;;5.47;2.50;;;25.50;57.70;;;;;;1905312;75;21105;-57
2022/10/02 12:04:46;;;;;;;6.35;3.45;;;25.50;57.40;;;;;;1905194;75;21076;-56
2022/10/02 12:07:18;;;;;;;8.33;3.85;;;25.50;57.40;;;;;;1904863;74;21513;-56
2022/10/02 12:10:13;;;;;;;4.20;3.22;;;25.50;57.30;;;;;;1904986;74;21063;-56
2022/10/02 12:12:50;;;;;;;6.45;3.30;;;25.50;56.50;;;;;;1905338;75;21087;-57
2022/10/02 12:15:34;;;;;;;8.28;4.62;;;25.40;56.30;;;;;;1904828;74;21023;-57
2022/10/02 12:18:08;;;;;;;5.67;3.85;;;25.40;56.40;;;;;;1913301;75;21097;-57
2022/10/02 12:26:58;;;;;;;5.78;2.90;;;25.30;55.60;;;;;;1914607;75;21023;-57
2022/10/02 12:29:50;;;;;;;6.72;2.98;;;25.30;54.70;;;;;;1914688;75;21035;-57
2022/10/02 12:32:39;;;;;;;6.78;3.10;;;25.30;54.90;;;;;;1914671;75;21045;-57
2022/10/02 12:35:26;;;;;;;9.15;3.83;;;25.20;54.90;;;;;;1914683;75;21101;-57
2022/10/02 12:38:28;;;;;;;6.33;3.52;;;25.20;54.40;;;;;;1914653;74;21535;-57
2022/10/02 12:41:06;;;;;;;4.62;2.85;;;25.20;54.10;;;;;;1914102;75;21047;-57
2022/10/02 12:44:00;;;;;;;4.55;2.35;;;25.20;53.00;;;;;;1914744;75;21429;-57
2022/10/02 12:46:51;;;;;;;6.53;3.30;;;25.20;52.70;;;;;;1914993;75;21042;-57
2022/10/02 12:49:44;;;;;;;5.78;3.42;;;25.20;53.10;;;;;;1914664;75;21035;-57
2022/10/02 12:52:20;;;;;;;6.90;3.42;;;25.20;52.80;;;;;;1914736;75;21082;-57
2022/10/02 12:54:57;;;;;;;6.72;3.52;;;25.20;53.00;;;;;;1914431;75;21046;-57
2022/10/02 12:57:57;;;;;;;6.17;2.52;;;25.20;52.60;;;;;;1879503;75;21015;-57
2022/10/02 13:00:32;;;;;;;8.15;3.22;;;25.20;51.80;;;;;;1914780;75;21186;-57
2022/10/02 13:03:36;;;;;;;8.15;3.08;;;25.20;52.30;;;;;;1905988;75;20995;-57
2022/10/02 13:06:43;;;;;;;14.45;8.60;;;25.20;51.20;;;;;;1914585;75;21039;-57
2022/10/02 13:09:21;;;;;;;5.35;3.40;;;25.20;51.70;;;;;;1914783;75;21073;-57
2022/10/02 13:12:08;;;;;;;7.80;4.28;;;25.20;51.80;;;;;;1914416;75;21118;-57
2022/10/02 13:15:03;;;;;;;5.45;4.00;;;25.20;51.90;;;;;;1913292;75;21192;-57
2022/10/02 13:18:08;;;;;;;6.05;3.77;;;25.10;51.50;;;;;;1909031;74;21032;-57
2022/10/02 13:21:03;;;;;;;5.75;3.20;;;25.10;51.60;;;;;;1905195;75;21043;-57
2022/10/02 13:23:42;;;;;;;9.75;3.40;;;25.10;51.30;;;;;;1904813;74;21031;-57
2022/10/02 13:26:32;;;;;;;4.62;2.75;;;25.20;51.40;;;;;;1902681;74;21503;-57
2022/10/02 13:29:29;;;;;;;4.12;3.20;;;25.10;51.20;;;;;;1904947;74;21031;-57
2022/10/02 13:32:07;;;;;;;8.43;3.58;;;25.10;51.80;;;;;;1905225;75;21043;-57
2022/10/02 13:34:45;;;;;;;7.50;3.08;;;25.10;52.00;;;;;;1904670;74;21112;-57
2022/10/02 13:37:32;;;;;;;2.77;2.30;;;25.10;52.20;;;;;;1905024;74;21129;-57
2022/10/02 13:40:22;;;;;;;7.67;3.50;;;25.10;52.30;;;;;;1904706;74;21085;-57
2022/10/02 13:42:57;;;;;;;6.47;3.40;;;25.00;52.50;;;;;;1905212;75;21056;-57
2022/10/02 13:45:28;;;;;;;;;;;25.00;52.80;;;;;;1906585;74;20996;-57
2022/10/02 13:48:17;;;;;;;6.95;2.98;;;25.00;53.00;;;;;;1905106;75;20093;-57
2022/10/02 13:51:07;;;;;;;5.15;2.92;;;25.00;53.40;;;;;;1904936;74;21481;-56
2022/10/02 13:53:48;;;;;;;4.17;3.10;;;25.00;53.70;;;;;;1905201;74;21023;-57
2022/10/02 13:56:42;;;;;;;11.15;3.80;;;24.90;54.10;;;;;;1905216;75;21091;-57
2022/10/02 13:59:23;;;;;;;4.03;3.17;;;24.90;54.30;;;;;;1905251;75;21108;-56
2022/10/02 14:02:01;;;;;;;9.65;3.60;;;24.80;54.40;;;;;;1905146;75;21024;-56
2022/10/02 14:04:59;;;;;;;5.80;3.20;;;24.80;54.60;;;;;;1905445;74;21466;-57
2022/10/02 14:07:43;;;;;;;13.48;3.92;;;24.80;54.70;;;;;;1905069;75;20984;-57